Nearby METAR Reports

 

KBGR - Bangor, Maine, USA
Distance from station: E 5mi, 8km
Updated: Mon, 06-Dec-2021 9:15am EST
Light rain, Mist, Overcast
Light rain, Mist, Overcast
 Wind from N
Wind: N 7 mph , 11 km/h
Temperature: 34°F , 1°C
Wind Chill: 28°F , -2°C
Dew Point: 30°F , -1°C
Humidity: 87%
Barometer: 30.04 inHg , 1017.3 hPa
Summary: Light rain, Mist
Clouds: Overcast
Visibility: 5 miles , 8 km
Cloud details: Overcast 1200 ft
2021/12/06 14:15 KBGR 061415Z 36006KT 5SM -RA BR OVC012 01/M01 A3004 RMK AO2 RAB15FZRAE15 P0001 I1001 T00061006
KBHB - Bar Harbor, Maine, USA
Distance from station: SE 37mi, 59km
Updated: Mon, 06-Dec-2021 8:56am EST
Light rain, Overcast
Light rain, Overcast
 Wind from SE
Wind: SE 13 mph , 20 km/h, Gust: 25 mph , 41 km/h
Temperature: 46°F , 8°C
Wind Chill: 40°F , 4°C
Dew Point: 43°F , 6°C
Humidity: 87%
Barometer: 30.09 inHg , 1019 hPa
Summary: Light rain
Clouds: Overcast
Visibility: 10 miles , 16 km
Cloud details: Mostly cloudy 1400 ft
Overcast 2000 ft
2021/12/06 13:56 KBHB 061356Z AUTO 14011G22KT 10SM -RA BKN014 OVC020 08/06 A3009 RMK AO2 SLP190 P0000 T00780061
 
KAUG - Augusta, Maine, USA
Distance from station: SW 55mi, 89km
Updated: Mon, 06-Dec-2021 9:15am EST
Light freezing, Rain, Fog, Overcast
Light freezing, Rain, Fog, Overcast
 Wind from N
Wind: N 3 mph , 6 km/h
Temperature: 32°F , 0°C
Dew Point: 30°F , -1°C
Humidity: 93%
Barometer: 30.00 inHg , 1015.9 hPa
Summary: Light freezing, Rain, Fog
Clouds: Overcast
Visibility: 1/2 mile , 0.8 km
Cloud details: Overcast 400 ft
2021/12/06 14:15 KAUG 061415Z AUTO 01003KT 1/2SM -FZRA FG OVC004 00/M01 A3000 RMK AO2 P0001 I1003 T00001006
KGNR - Greenville, Maine, USA
Distance from station: NW 55mi, 89km
Updated: Mon, 06-Dec-2021 8:56am EST

 Wind from ESE
Wind: ESE 12 mph , 19 km/h
Temperature: 25°F , -4°C
Wind Chill: 14°F , -10°C
Dew Point: 23°F , -5°C
Humidity: 93%
Barometer: 29.96 inHg , 1014.6 hPa
2021/12/06 13:56 KGNR 061356Z AUTO 12010KT M04/M05 A2996 RMK AO1 SLP170 T10391050
 
KMLT - Millinocket, Maine, USA
Distance from station: N 59mi, 95km
Updated: Mon, 06-Dec-2021 9:11am EST
Light freezing, Rain, Mist, Overcast
Light freezing, Rain, Mist, Overcast
 Wind from N
Wind: N 5 mph , 7 km/h
Temperature: 25°F , -4°C
Wind Chill: 19°F , -7°C
Dew Point: 21°F , -6°C
Humidity: 86%
Barometer: 30.10 inHg , 1019.3 hPa
Summary: Light freezing, Rain, Mist
Clouds: Overcast
Visibility: 3 miles , 5 km
Cloud details: Overcast 500 ft
2021/12/06 14:11 KMLT 061411Z AUTO 35004KT 3SM -FZRA BR OVC005 M04/M06 A3010 RMK AO2 UPE02FZRAB02 P0000 I1001 T10441056 TSNO
KLEW - Auburn/Lewiston, Maine, USA
Distance from station: SW 86mi, 138km
Updated: Mon, 06-Dec-2021 9:28am EST
Mist, Overcast
Mist, Overcast
 Wind from NNW
Wind: NNW 7 mph , 11 km/h
Temperature: 32°F , 0°C
Wind Chill: 25°F , -4°C
Dew Point: 30°F , -1°C
Humidity: 93%
Barometer: 29.98 inHg , 1015.2 hPa
Summary: Mist
Clouds: Overcast
Visibility: 2 1/2 miles , 4 km
Cloud details: Overcast 400 ft
2021/12/06 14:28 KLEW 061428Z AUTO 33006KT 2 1/2SM UP BR OVC004 00/M01 A2998 RMK AO2 P0004 FZRANO
 
KHUL - Houlton, Maine, USA
Distance from station: NNE 105mi, 169km
Updated: Mon, 06-Dec-2021 9:27am EST
Light snow, Mist, Overcast
Light snow, Mist, Overcast
 Wind from varies
Wind: varies 7 mph , 11 km/h, Gust: 17 mph , 28 km/h
Temperature: 25°F , -4°C
Wind Chill: 17°F , -8°C
Dew Point: 21°F , -6°C
Humidity: 86%
Barometer: 30.09 inHg , 1019 hPa
Summary: Light snow, Mist
Clouds: Overcast
Visibility: 2 miles , 3 km
Cloud details: Overcast 1100 ft
2021/12/06 14:27 KHUL 061427Z AUTO VRB06G15KT 2SM -SN BR OVC011 M04/M06 A3009 RMK AO2 UPB08E15SNB1354E08B15 P0000 T10441061
KPWM - Portland, Maine, USA
Distance from station: SW 105mi, 170km
Updated: Mon, 06-Dec-2021 8:51am EST
Rain, Mist, Overcast
Rain, Mist, Overcast
 Wind from E
Wind: E 5 mph , 7 km/h
Temperature: 46°F , 8°C
Wind Chill: 44°F , 7°C
Dew Point: 46°F , 8°C
Humidity: 100%
Barometer: 29.98 inHg , 1015.2 hPa
Summary: Rain, Mist
Clouds: Overcast
Visibility: 1 1/2 miles , 2.4 km
Cloud details: Mostly cloudy 700 ft
Overcast 1400 ft
2021/12/06 13:51 KPWM 061351Z 08004KT 1 1/2SM RA BR BKN007 OVC014 08/08 A2998 RMK AO2 RAB1255 PRESFR SLP153 P0010 T00780078
 
KBML - Berlin, New Hampshire, USA
Distance from station: W 113mi, 181km
Updated: Mon, 06-Dec-2021 8:52am EST
Light rain, Overcast
Light rain, Overcast
 Wind from SSE
Wind: SSE 22 mph , 35 km/h, Gust: 30 mph , 48 km/h
Temperature: 39°F , 4°C
Wind Chill: 29°F , -2°C
Dew Point: 36°F , 2°C
Humidity: 87%
Barometer: 29.91 inHg , 1012.9 hPa
Summary: Light rain
Clouds: Overcast
Visibility: 9 miles , 14 km
Cloud details: Mostly cloudy 4500 ft
Overcast 6000 ft
2021/12/06 13:52 KBML 061352Z AUTO 15019G26KT 9SM -RA BKN045 OVC060 04/02 A2991 RMK AO2 PK WND 16030/1333 RAB12 SLP144 P0000 T00440017
KIZG - Fryeburg, Maine, USA
Distance from station: WSW 116mi, 186km
Updated: Mon, 06-Dec-2021 9:24am EST
Overcast
Overcast
 Wind from calm
Wind: Calm
Temperature: 32°F , 0°C
Dew Point: 30°F , -1°C
Humidity: 93%
Barometer: 29.98 inHg , 1015.2 hPa
Clouds: Overcast
Visibility: 10 miles , 16 km
Cloud details: Partly cloudy 400 ft
Overcast 1100 ft
2021/12/06 14:24 KIZG 061424Z AUTO 00000KT 10SM UP SCT004 OVC011 00/M01 A2998 RMK AO2 UPB18FZRAE18 P0007 I1003 T00001006
 
KMWN - Mount Washington, New Hampshire, USA
Distance from station: WSW 123mi, 198km
Updated: Mon, 06-Dec-2021 8:49am EST
Light freezing, Rain, Freezing, Fog, Overcast
Light freezing, Rain, Freezing, Fog, Overcast
 Wind from S
Wind: S 51 mph , 81 km/h, Gust: 61 mph , 98 km/h
Temperature: 28°F , -2°C
Wind Chill: 9°F , -13°C
Dew Point: 28°F , -2°C
Humidity: 100%
Summary: Light freezing, Rain, Freezing, Fog
Clouds: Overcast
Visibility: 0 miles , 0 km
Cloud details: Overcast 0 ft
2021/12/06 13:49 KMWN 061349Z 18044G53KT 0SM -FZRA FZFG VV000 M02/M02 RMK VRY LGT GICG
KCAR - Caribou, Maine, USA
Distance from station: NNE 148mi, 238km
Updated: Mon, 06-Dec-2021 9:26am EST
Light snow, Mist, Overcast
Light snow, Mist, Overcast
 Wind from ESE
Wind: ESE 10 mph , 17 km/h
Temperature: 19°F , -7°C
Wind Chill: 8°F , -13°C
Dew Point: 16°F , -9°C
Humidity: 86%
Barometer: 30.08 inHg , 1018.6 hPa
Summary: Light snow, Mist
Clouds: Overcast
Visibility: 1 1/2 miles , 2.4 km
Cloud details: Overcast 1600 ft
2021/12/06 14:26 KCAR 061426Z AUTO 11009KT 1 1/2SM -SN BR OVC016 M07/M09 A3008 RMK AO2 P0003 T10671089